Barrington, Rhode Island
Current Conditions -  °F | °C
As of 8:51 PM on Saturday 20 Dec 2014 (Local Time) from KPVD Reporting Station
Light Snow Light Snow  
Wind Chill: 23°   Ceiling: 1400
Heat Index: 31°   Visibility: 1.7mi
Dew Point: 29°   Wind: 9mph
Humidity: 92%   Direction: 350°N
Pressure: 30.29"   Gusts: NA
Location:  41.74°N, 71.31°W
Report Text: KPVD 210151Z 35008KT 1 3/4SM -SN BR FEW007 BKN014 OVC024 M01/M02 A3029 RMK AO2 SFC VIS 2 SLP256 CIG 012V021 DZB04E20 P0002 T10061017
Loading
Personal Weather Stations






























Interactive Weather Map New forecast layout! Learn more

10-Day Weather Forecast

Advertisements
Track Severe Weather on mobile